createdAt,value
2023-03-26T00:02:06.351Z,10.49
2023-03-26T00:04:34.620Z,10.55
2023-03-26T00:07:03.172Z,10.60
2023-03-26T00:09:31.219Z,10.66
2023-03-26T00:11:59.113Z,10.69
2023-03-26T00:14:27.142Z,10.55
2023-03-26T00:16:55.201Z,10.25
2023-03-26T00:19:25.293Z,10.19
2023-03-26T00:21:53.399Z,10.30
2023-03-26T00:24:21.574Z,10.42
2023-03-26T00:26:53.546Z,10.29
2023-03-26T00:29:22.973Z,10.02
2023-03-26T00:31:51.089Z,10.03
2023-03-26T00:34:19.330Z,10.21
2023-03-26T00:36:54.448Z,10.31
2023-03-26T00:39:24.052Z,10.26
2023-03-26T00:41:54.287Z,10.31
2023-03-26T00:44:22.792Z,10.35
2023-03-26T00:46:50.713Z,10.38
2023-03-26T00:49:18.820Z,10.37
2023-03-26T00:51:48.069Z,10.39
2023-03-26T00:54:16.035Z,10.38
2023-03-26T00:56:44.200Z,10.43
2023-03-26T00:59:12.248Z,10.39
2023-03-26T01:01:40.249Z,10.25
2023-03-26T01:04:30.832Z,10.19
2023-03-26T01:07:04.061Z,10.22
2023-03-26T01:09:38.581Z,10.30
2023-03-26T01:12:09.758Z,10.36
2023-03-26T01:14:39.302Z,10.42
2023-03-26T01:17:09.254Z,10.44
2023-03-26T01:19:45.034Z,10.37
2023-03-26T01:22:17.401Z,10.45
2023-03-26T01:24:53.064Z,10.43
2023-03-26T01:27:29.603Z,10.38
2023-03-26T01:30:06.207Z,10.36
2023-03-26T01:32:47.629Z,10.37
2023-03-26T01:35:34.469Z,10.32
2023-03-26T01:38:11.659Z,10.30
2023-03-26T01:40:47.242Z,10.32
2023-03-26T01:43:25.606Z,10.37
2023-03-26T01:45:55.099Z,10.43
2023-03-26T01:48:31.209Z,10.38
2023-03-26T01:50:59.191Z,10.32
2023-03-26T01:53:28.094Z,10.33
2023-03-26T01:56:06.984Z,10.34
2023-03-26T01:58:42.630Z,10.35
2023-03-26T02:01:24.492Z,10.34
2023-03-26T02:03:59.924Z,10.31
2023-03-26T02:06:37.711Z,10.29
2023-03-26T02:09:09.136Z,10.35
2023-03-26T02:11:40.866Z,10.35
2023-03-26T02:14:09.956Z,10.31
2023-03-26T02:16:38.109Z,10.36
2023-03-26T02:19:15.905Z,10.39
2023-03-26T02:21:44.124Z,10.34
2023-03-26T02:24:12.240Z,10.31
2023-03-26T02:26:42.148Z,10.23
2023-03-26T02:29:13.438Z,10.16
2023-03-26T02:31:44.155Z,10.12
2023-03-26T02:34:12.210Z,10.14
2023-03-26T02:36:46.950Z,10.09
2023-03-26T02:39:15.333Z,10.06
2023-03-26T02:41:51.836Z,10.03
2023-03-26T02:44:19.872Z,10.05
2023-03-26T02:47:00.115Z,10.04
2023-03-26T02:49:46.611Z,10.05
2023-03-26T02:52:22.211Z,10.08
2023-03-26T02:54:52.057Z,10.07
2023-03-26T02:57:26.628Z,10.04
2023-03-26T02:59:57.917Z,10.03
2023-03-26T03:02:58.876Z,10.01
2023-03-26T03:05:33.918Z,10.04
2023-03-26T03:08:23.655Z,10.02
2023-03-26T03:11:16.303Z,10.01
2023-03-26T03:13:48.668Z,10.01
2023-03-26T03:16:37.052Z,10.04
2023-03-26T03:19:10.738Z,10.09
2023-03-26T03:21:42.421Z,10.10
2023-03-26T03:24:13.879Z,10.11
2023-03-26T03:26:45.878Z,10.12
2023-03-26T03:29:41.443Z,10.10
2023-03-26T03:32:28.731Z,10.07
2023-03-26T03:35:01.740Z,10.12
2023-03-26T03:37:29.810Z,10.14
2023-03-26T03:39:59.734Z,10.18
2023-03-26T03:42:30.923Z,10.16
2023-03-26T03:45:03.651Z,10.12
2023-03-26T03:47:51.520Z,10.09
2023-03-26T03:50:25.504Z,10.06
2023-03-26T03:53:08.075Z,10.13
2023-03-26T03:55:38.282Z,10.10
2023-03-26T03:58:09.245Z,10.10
2023-03-26T04:00:41.666Z,10.15
2023-03-26T04:03:33.476Z,10.19
2023-03-26T04:06:08.000Z,10.23
2023-03-26T04:08:36.861Z,10.26
2023-03-26T04:11:07.156Z,10.32
2023-03-26T04:13:55.049Z,10.34
2023-03-26T04:16:56.543Z,10.34
2023-03-26T04:19:27.465Z,10.35
2023-03-26T04:21:55.937Z,10.38
2023-03-26T04:24:24.534Z,10.40
2023-03-26T04:27:30.310Z,10.42
2023-03-26T04:30:10.155Z,10.40
2023-03-26T04:32:40.533Z,10.38
2023-03-26T04:35:09.063Z,10.36
2023-03-26T04:37:40.560Z,10.32
2023-03-26T04:40:16.386Z,10.30
2023-03-26T04:42:54.687Z,10.28
2023-03-26T04:45:43.710Z,10.31
2023-03-26T04:48:14.649Z,10.30
2023-03-26T04:50:45.208Z,10.27
2023-03-26T04:53:16.493Z,10.26
2023-03-26T04:56:09.945Z,10.24
2023-03-26T04:59:00.694Z,10.23
2023-03-26T05:01:31.179Z,10.22
2023-03-26T05:04:00.665Z,10.22
2023-03-26T05:06:30.495Z,10.22
2023-03-26T05:08:59.376Z,10.20
2023-03-26T05:11:48.246Z,10.17
2023-03-26T05:14:16.214Z,10.12
2023-03-26T05:16:45.232Z,10.11
2023-03-26T05:19:14.783Z,10.14
2023-03-26T05:21:42.902Z,10.14
2023-03-26T05:24:10.930Z,10.15
2023-03-26T05:26:39.041Z,10.13
2023-03-26T05:29:07.230Z,10.14
2023-03-26T05:31:38.044Z,10.19
2023-03-26T05:34:06.815Z,10.22
2023-03-26T05:36:36.860Z,10.28
2023-03-26T05:39:12.839Z,10.29
2023-03-26T05:42:18.709Z,10.25
2023-03-26T05:45:04.455Z,10.22
2023-03-26T05:47:35.469Z,10.17
2023-03-26T05:50:03.563Z,10.12
2023-03-26T05:52:33.439Z,10.15
2023-03-26T05:55:33.352Z,10.12
2023-03-26T05:58:24.419Z,10.14
2023-03-26T06:01:16.962Z,10.15
2023-03-26T06:04:08.098Z,10.10
2023-03-26T06:06:40.501Z,10.14
2023-03-26T06:09:12.089Z,10.12
2023-03-26T06:11:41.832Z,10.13
2023-03-26T06:14:09.995Z,10.09
2023-03-26T06:16:41.624Z,9.87
2023-03-26T06:19:19.661Z,9.82
2023-03-26T06:21:58.522Z,9.80
2023-03-26T06:24:34.899Z,9.80
2023-03-26T06:27:21.515Z,9.76
2023-03-26T06:30:02.822Z,9.78
2023-03-26T06:32:39.541Z,9.79
2023-03-26T06:35:11.835Z,9.82
2023-03-26T06:37:39.782Z,9.82
2023-03-26T06:40:11.140Z,9.87
2023-03-26T06:43:09.007Z,9.88
2023-03-26T06:45:52.515Z,9.91
2023-03-26T06:48:39.269Z,9.90
2023-03-26T06:51:26.081Z,9.90
2023-03-26T06:54:14.520Z,9.90
2023-03-26T06:56:54.295Z,9.87
2023-03-26T06:59:41.084Z,9.85
2023-03-26T07:02:27.662Z,9.80
2023-03-26T07:05:14.935Z,9.76
2023-03-26T07:08:01.443Z,9.75
2023-03-26T07:10:48.104Z,9.75
2023-03-26T07:13:37.847Z,9.68
2023-03-26T07:16:29.348Z,9.63
2023-03-26T07:19:23.503Z,9.58
2023-03-26T07:21:53.781Z,9.54
2023-03-26T07:24:45.094Z,9.45
2023-03-26T07:27:45.340Z,9.37
2023-03-26T07:30:23.573Z,9.32
2023-03-26T07:33:15.474Z,9.34
2023-03-26T07:36:30.475Z,9.41
2023-03-26T07:39:40.621Z,9.42
2023-03-26T07:42:34.117Z,9.44
2023-03-26T07:45:33.936Z,9.45
2023-03-26T07:48:27.409Z,9.44
2023-03-26T07:51:31.678Z,9.50
2023-03-26T07:54:28.994Z,9.52
2023-03-26T07:57:02.628Z,9.53
2023-03-26T07:59:56.676Z,9.53
2023-03-26T08:03:24.306Z,9.54
2023-03-26T08:06:06.708Z,9.53
2023-03-26T08:08:54.971Z,9.59
2023-03-26T08:12:10.031Z,9.57
2023-03-26T08:14:51.836Z,9.58
2023-03-26T08:17:31.229Z,9.53
2023-03-26T08:20:12.872Z,9.59
2023-03-26T08:22:43.404Z,9.55
2023-03-26T08:25:21.094Z,9.59
2023-03-26T08:27:57.517Z,9.64
2023-03-26T08:30:27.767Z,9.73
2023-03-26T08:32:58.328Z,9.71
2023-03-26T08:35:28.487Z,9.77
2023-03-26T08:37:58.037Z,9.85
2023-03-26T08:40:56.223Z,9.90
2023-03-26T08:43:52.765Z,9.96
2023-03-26T08:46:57.911Z,10.01
2023-03-26T08:49:57.675Z,10.09
2023-03-26T08:52:38.746Z,10.14
2023-03-26T08:55:36.459Z,10.17
2023-03-26T08:58:33.368Z,10.15
2023-03-26T09:01:38.800Z,10.15
2023-03-26T09:04:32.527Z,10.12
2023-03-26T09:07:38.100Z,10.15
2023-03-26T09:10:39.291Z,10.12
2023-03-26T09:13:35.605Z,10.14
2023-03-26T09:16:28.699Z,10.09
2023-03-26T09:19:23.459Z,10.02
2023-03-26T09:22:28.164Z,9.94
2023-03-26T09:25:26.337Z,9.89
2023-03-26T09:28:36.437Z,9.86
2023-03-26T09:31:28.910Z,9.87
2023-03-26T09:34:16.536Z,9.87
2023-03-26T09:36:57.353Z,9.89
2023-03-26T09:39:37.866Z,9.90
2023-03-26T09:42:17.421Z,9.95
2023-03-26T09:45:13.466Z,10.03
2023-03-26T09:48:18.380Z,10.00
2023-03-26T09:51:00.044Z,10.00
2023-03-26T09:54:01.932Z,10.02
2023-03-26T09:56:44.645Z,10.02
2023-03-26T09:59:38.938Z,10.04
2023-03-26T10:02:23.593Z,10.07
2023-03-26T10:05:50.000Z,10.02
2023-03-26T10:08:51.640Z,9.99
2023-03-26T10:11:28.571Z,10.03
2023-03-26T10:14:05.271Z,10.10
2023-03-26T10:16:46.096Z,10.11
2023-03-26T10:19:51.179Z,10.15
2023-03-26T10:22:31.706Z,10.17
2023-03-26T10:25:29.647Z,10.24
2023-03-26T10:28:26.596Z,10.30
2023-03-26T10:31:16.481Z,10.32
2023-03-26T10:33:57.751Z,10.35
2023-03-26T10:36:34.097Z,10.34
2023-03-26T10:39:38.356Z,10.37
2023-03-26T10:42:29.920Z,10.35
2023-03-26T10:45:15.471Z,10.41
2023-03-26T10:48:04.274Z,10.39
2023-03-26T10:50:53.411Z,10.45
2023-03-26T10:53:33.007Z,10.50
2023-03-26T10:56:11.144Z,10.54
2023-03-26T10:58:48.431Z,10.59
2023-03-26T11:01:26.000Z,10.58
2023-03-26T11:03:55.180Z,10.60
2023-03-26T11:06:33.489Z,10.62
2023-03-26T11:09:12.333Z,10.67
2023-03-26T11:11:47.900Z,10.69
2023-03-26T11:14:33.859Z,10.78
2023-03-26T11:17:15.029Z,10.85
2023-03-26T11:20:06.275Z,10.91
2023-03-26T11:22:45.189Z,10.93
2023-03-26T11:25:31.108Z,10.95
2023-03-26T11:28:11.670Z,10.97
2023-03-26T11:30:46.864Z,11.03
2023-03-26T11:33:21.866Z,11.07
2023-03-26T11:35:52.020Z,11.08
2023-03-26T11:38:24.643Z,11.11
2023-03-26T11:40:56.937Z,11.14
2023-03-26T11:43:49.605Z,11.21
2023-03-26T11:46:20.135Z,11.36
2023-03-26T11:48:51.229Z,11.38
2023-03-26T11:51:24.859Z,11.56
2023-03-26T11:53:54.547Z,11.65
2023-03-26T11:56:31.071Z,11.66
2023-03-26T11:59:05.701Z,11.68
2023-03-26T12:01:44.547Z,11.74
2023-03-26T12:04:14.609Z,11.69
2023-03-26T12:06:53.641Z,11.71
2023-03-26T12:09:21.567Z,11.73
2023-03-26T12:11:55.777Z,11.69
2023-03-26T12:14:26.238Z,11.61
2023-03-26T12:17:02.557Z,11.52
2023-03-26T12:19:39.461Z,11.42
2023-03-26T12:22:25.412Z,11.36
2023-03-26T12:25:02.551Z,11.15
2023-03-26T12:27:33.184Z,11.04
2023-03-26T12:30:12.457Z,10.95
2023-03-26T12:32:46.770Z,10.94
2023-03-26T12:35:19.554Z,10.90
2023-03-26T12:37:48.807Z,10.86
2023-03-26T12:40:33.315Z,10.82
2023-03-26T12:44:54.488Z,10.82
2023-03-26T12:47:54.416Z,10.72
2023-03-26T12:48:44.230Z,10.70
2023-03-26T12:51:20.255Z,10.77
2023-03-26T12:54:15.491Z,10.74
2023-03-26T12:57:12.312Z,10.73
2023-03-26T12:59:53.872Z,10.55
2023-03-26T13:02:59.101Z,10.38
2023-03-26T13:05:43.218Z,9.03
2023-03-26T13:08:35.470Z,7.48
2023-03-26T13:11:09.445Z,6.62
2023-03-26T13:13:58.489Z,6.39
2023-03-26T13:16:36.259Z,6.63
2023-03-26T13:19:08.780Z,6.82
2023-03-26T13:21:47.979Z,7.06
2023-03-26T13:24:28.450Z,7.26
2023-03-26T13:27:13.444Z,7.65
2023-03-26T13:29:56.338Z,8.02
2023-03-26T13:32:38.186Z,8.36
2023-03-26T13:35:16.886Z,8.59
2023-03-26T13:37:51.942Z,8.71
2023-03-26T13:40:27.239Z,8.76
2023-03-26T13:43:20.355Z,8.86
2023-03-26T13:45:57.107Z,8.98
2023-03-26T13:48:29.784Z,9.04
2023-03-26T13:51:06.110Z,9.14
2023-03-26T13:53:42.413Z,9.16
2023-03-26T13:56:14.816Z,9.24
2023-03-26T13:58:48.809Z,9.41
2023-03-26T14:01:20.773Z,9.60
2023-03-26T14:03:56.041Z,9.78
2023-03-26T14:06:42.053Z,9.88
2023-03-26T14:09:16.325Z,9.93
2023-03-26T14:11:57.985Z,9.84
2023-03-26T14:14:35.876Z,9.84
2023-03-26T14:17:07.762Z,9.90
2023-03-26T14:20:06.524Z,10.04
2023-03-26T14:22:43.624Z,10.67
2023-03-26T14:25:43.378Z,10.35
2023-03-26T14:28:25.369Z,10.22
2023-03-26T14:31:06.062Z,10.42
2023-03-26T14:33:49.977Z,10.57
2023-03-26T14:36:35.631Z,10.83
2023-03-26T14:39:30.479Z,11.10
2023-03-26T14:42:03.332Z,11.23
2023-03-26T14:44:53.381Z,11.33
2023-03-26T14:47:23.004Z,11.35
2023-03-26T14:50:15.777Z,11.32
2023-03-26T14:52:48.745Z,11.50
2023-03-26T14:55:35.357Z,11.73
2023-03-26T14:58:22.066Z,12.05
2023-03-26T15:01:32.919Z,12.12
2023-03-26T15:04:49.089Z,11.86
2023-03-26T15:07:42.733Z,11.90
2023-03-26T15:10:45.336Z,11.86
2023-03-26T15:13:46.897Z,12.07
2023-03-26T15:16:58.001Z,12.08
2023-03-26T15:19:57.912Z,12.30
2023-03-26T15:22:54.930Z,12.26
2023-03-26T15:26:07.771Z,12.39
2023-03-26T15:29:08.506Z,12.08
2023-03-26T15:32:13.584Z,11.67
2023-03-26T15:35:07.460Z,11.55
2023-03-26T15:38:09.378Z,11.45
2023-03-26T15:40:45.561Z,11.39
2023-03-26T15:43:16.750Z,11.21
2023-03-26T15:45:48.214Z,11.13
2023-03-26T15:48:55.569Z,11.08
2023-03-26T15:51:46.506Z,11.16
2023-03-26T15:54:25.486Z,11.10
2023-03-26T15:57:16.707Z,11.12
2023-03-26T15:59:59.427Z,11.17
2023-03-26T16:02:36.454Z,11.48
2023-03-26T16:05:25.598Z,11.75
2023-03-26T16:08:05.515Z,11.62
2023-03-26T16:10:40.898Z,11.61
2023-03-26T16:13:37.852Z,11.70
2023-03-26T16:16:23.553Z,11.88
2023-03-26T16:18:59.620Z,12.02
2023-03-26T16:21:55.798Z,12.21
2023-03-26T16:24:28.877Z,12.20
2023-03-26T16:27:09.252Z,11.90
2023-03-26T16:30:10.627Z,11.58
2023-03-26T16:32:42.557Z,11.34
2023-03-26T16:35:56.966Z,11.24
2023-03-26T16:38:27.352Z,11.11
2023-03-26T16:41:04.072Z,11.07
2023-03-26T16:43:45.429Z,11.12
2023-03-26T16:46:27.256Z,11.25
2023-03-26T16:49:02.222Z,11.51
2023-03-26T16:51:54.315Z,11.68
2023-03-26T16:54:27.056Z,11.63
2023-03-26T16:57:01.147Z,11.40
2023-03-26T16:59:58.471Z,11.26
2023-03-26T17:02:46.467Z,11.13
2023-03-26T17:05:21.499Z,11.04
2023-03-26T17:08:01.299Z,10.83
2023-03-26T17:10:36.527Z,10.72
2023-03-26T17:13:08.909Z,10.64
2023-03-26T17:15:47.088Z,10.58
2023-03-26T17:18:29.478Z,10.58
2023-03-26T17:21:05.493Z,10.58
2023-03-26T17:23:59.122Z,10.52
2023-03-26T17:26:41.202Z,10.38
2023-03-26T17:29:21.104Z,10.33
2023-03-26T17:31:54.391Z,10.31
2023-03-26T17:34:46.568Z,10.72
2023-03-26T17:37:44.509Z,10.53
2023-03-26T17:40:47.036Z,10.38
2023-03-26T17:43:37.320Z,10.20
2023-03-26T17:46:13.661Z,10.15
2023-03-26T17:48:47.088Z,10.19
2023-03-26T17:51:31.720Z,10.10
2023-03-26T17:54:01.873Z,10.05
2023-03-26T17:56:33.226Z,10.00
2023-03-26T17:59:11.757Z,9.95
2023-03-26T18:01:44.142Z,9.92
2023-03-26T18:04:18.580Z,9.86
2023-03-26T18:07:04.048Z,9.79
2023-03-26T18:09:49.222Z,9.74
2023-03-26T18:12:30.437Z,9.75
2023-03-26T18:15:19.039Z,9.72
2023-03-26T18:17:48.862Z,9.68
2023-03-26T18:20:23.547Z,9.68
2023-03-26T18:22:52.712Z,9.66
2023-03-26T18:25:27.170Z,9.56
2023-03-26T18:27:55.563Z,9.65
2023-03-26T18:30:26.094Z,9.72
2023-03-26T18:33:00.796Z,9.70
2023-03-26T18:35:39.424Z,9.66
2023-03-26T18:38:07.455Z,9.60
2023-03-26T18:40:43.134Z,9.58
2023-03-26T18:43:28.643Z,9.52
2023-03-26T18:46:02.598Z,9.47
2023-03-26T18:48:30.801Z,9.51
2023-03-26T18:51:05.093Z,9.54
2023-03-26T18:53:39.635Z,9.58
2023-03-26T18:56:28.510Z,9.61
2023-03-26T18:58:59.210Z,9.63
2023-03-26T19:01:31.643Z,9.59
2023-03-26T19:04:03.740Z,9.59
2023-03-26T19:06:36.200Z,9.56
2023-03-26T19:09:16.360Z,9.57
2023-03-26T19:11:50.359Z,9.56
2023-03-26T19:14:20.528Z,9.52
2023-03-26T19:16:54.099Z,9.51
2023-03-26T19:19:24.074Z,9.42
2023-03-26T19:21:52.612Z,9.47
2023-03-26T19:24:22.604Z,9.43
2023-03-26T19:26:52.553Z,9.26
2023-03-26T19:29:27.779Z,8.97
2023-03-26T19:32:04.123Z,8.68
2023-03-26T19:34:34.912Z,8.75
2023-03-26T19:37:04.416Z,8.79
2023-03-26T19:39:42.844Z,8.76
2023-03-26T19:42:16.239Z,8.90
2023-03-26T19:44:44.742Z,9.04
2023-03-26T19:47:18.729Z,9.07
2023-03-26T19:49:53.067Z,9.17
2023-03-26T19:52:26.903Z,9.21
2023-03-26T19:55:01.358Z,8.92
2023-03-26T19:57:32.967Z,9.02
2023-03-26T20:00:01.121Z,9.00
2023-03-26T20:02:29.455Z,8.96
2023-03-26T20:04:57.535Z,8.95
2023-03-26T20:10:15.878Z,9.01
2023-03-26T20:12:45.513Z,9.05
2023-03-26T20:15:19.404Z,9.02
2023-03-26T20:17:50.209Z,8.99
2023-03-26T20:20:18.410Z,8.90
2023-03-26T20:22:46.909Z,8.95
2023-03-26T20:25:20.926Z,8.93
2023-03-26T20:27:53.014Z,8.96
2023-03-26T20:30:36.331Z,8.88
2023-03-26T20:33:11.904Z,8.85
2023-03-26T20:35:42.776Z,8.83
2023-03-26T20:38:10.730Z,8.84
2023-03-26T20:40:39.502Z,8.83
2023-03-26T20:43:13.224Z,8.80
2023-03-26T20:45:41.728Z,8.77
2023-03-26T20:48:11.107Z,8.71
2023-03-26T20:51:01.532Z,8.50
2023-03-26T20:53:30.494Z,8.42
2023-03-26T20:55:58.416Z,8.32
2023-03-26T20:58:31.828Z,8.13
2023-03-26T21:01:01.827Z,7.94
2023-03-26T21:03:30.012Z,7.95
2023-03-26T21:06:01.363Z,7.91
2023-03-26T21:08:35.198Z,7.89
2023-03-26T21:11:04.851Z,7.79
2023-03-26T21:13:39.184Z,7.70
2023-03-26T21:16:08.277Z,7.52
2023-03-26T21:18:36.907Z,7.39
2023-03-26T21:21:21.134Z,7.34
2023-03-26T21:23:59.411Z,7.34
2023-03-26T21:26:33.616Z,7.45
2023-03-26T21:29:11.816Z,7.61
2023-03-26T21:31:40.528Z,7.70
2023-03-26T21:34:09.670Z,7.71
2023-03-26T21:36:38.224Z,7.53
2023-03-26T21:39:06.870Z,7.33
2023-03-26T21:41:44.213Z,7.21
2023-03-26T21:44:14.298Z,7.14
2023-03-26T21:46:43.650Z,7.15
2023-03-26T21:49:12.510Z,7.04
2023-03-26T21:51:41.000Z,7.11
2023-03-26T21:54:23.609Z,7.03
2023-03-26T21:57:04.136Z,7.01
2023-03-26T21:59:40.948Z,6.98
2023-03-26T22:02:15.163Z,6.92
2023-03-26T22:04:48.504Z,6.97
2023-03-26T22:07:20.677Z,6.97
2023-03-26T22:09:49.550Z,7.00
2023-03-26T22:12:17.803Z,6.98
2023-03-26T22:14:47.476Z,6.96
2023-03-26T22:17:15.518Z,6.97
2023-03-26T22:19:43.590Z,7.06
2023-03-26T22:22:12.536Z,7.13
2023-03-26T22:24:40.480Z,7.14
2023-03-26T22:27:08.437Z,7.13
2023-03-26T22:29:36.439Z,7.26
2023-03-26T22:32:06.343Z,7.33
2023-03-26T22:34:35.123Z,7.38
2023-03-26T22:37:03.076Z,7.59
2023-03-26T22:39:31.345Z,7.63
2023-03-26T22:42:01.417Z,7.69
2023-03-26T22:44:29.325Z,7.74
2023-03-26T22:46:57.216Z,7.69
2023-03-26T22:49:28.512Z,7.36
2023-03-26T22:51:56.528Z,7.20
2023-03-26T22:54:24.514Z,7.26
2023-03-26T22:56:53.026Z,7.23
2023-03-26T22:59:21.004Z,7.32
2023-03-26T23:01:49.368Z,7.51
2023-03-26T23:04:30.671Z,7.52
2023-03-26T23:07:00.489Z,7.44
2023-03-26T23:09:28.410Z,7.54
2023-03-26T23:11:56.977Z,7.44
2023-03-26T23:14:25.078Z,7.32
2023-03-26T23:16:53.016Z,7.44
2023-03-26T23:19:20.909Z,7.32
2023-03-26T23:21:48.944Z,7.11
2023-03-26T23:24:18.726Z,7.10
2023-03-26T23:29:17.506Z,7.26
2023-03-26T23:31:45.540Z,7.39
2023-03-26T23:34:14.210Z,7.25
2023-03-26T23:36:42.474Z,7.18
2023-03-26T23:39:10.970Z,7.20
2023-03-26T23:41:40.256Z,7.27
2023-03-26T23:44:13.515Z,7.23
2023-03-26T23:46:42.770Z,7.23
2023-03-26T23:49:12.241Z,7.22
2023-03-26T23:51:40.241Z,7.30
2023-03-26T23:54:08.859Z,7.28
2023-03-26T23:56:36.866Z,7.40
2023-03-26T23:59:06.322Z,7.40
